Time;durP1;ratioP1;P1;durP2;ratioP2;P2;SDS_P1;SDS_P2;PMS_P1;PMS_P2;Temp;Humidity;BMP_temperature;BMP_pressure;BME280_temperature;BME280_humidity;BME280_pressure;Samples;Min_cycle;Max_cycle;Signal;HPM_P1;HPM_P2
2022/11/08 00:02:42;;;;;;;0.93;0.93;;;;;;;7.91;74.82;99791.22;4349177;33;33925;-77
2022/11/08 00:16:18;;;;;;;1.25;1.15;;;;;;;7.14;78.77;99793.13;4349008;33;35039;-73
2022/11/08 00:18:46;;;;;;;0.57;0.57;;;;;;;7.15;80.71;99799.22;4348930;33;34620;-71
2022/11/08 00:21:14;;;;;;;0.80;0.80;;;;;;;7.67;78.45;99786.72;4348921;33;33693;-78
2022/11/08 00:23:43;;;;;;;1.85;1.73;;;;;;;7.16;78.85;99791.44;4349067;33;34588;-78
2022/11/08 00:26:11;;;;;;;0.75;0.75;;;;;;;7.60;76.98;99793.56;4348936;33;35070;-73
2022/11/08 00:28:39;;;;;;;1.10;0.75;;;;;;;7.91;74.29;99791.22;4349182;33;35301;-77
2022/11/08 00:31:07;;;;;;;1.10;0.80;;;;;;;7.11;78.41;99792.25;4348916;33;33666;-71
2022/11/08 00:33:36;;;;;;;0.98;0.93;;;;;;;7.18;77.92;99794.03;4348928;33;34615;-71
2022/11/08 00:36:04;;;;;;;0.62;0.57;;;;;;;7.46;77.65;99790.00;4348896;33;35044;-77
2022/11/08 00:38:32;;;;;;;1.35;1.25;;;;;;;7.24;78.18;99788.94;4348865;33;35335;-72
2022/11/08 00:41:00;;;;;;;0.70;0.70;;;;;;;7.60;76.64;99788.37;4349008;33;33488;-70
2022/11/08 00:43:28;;;;;;;0.50;0.50;;;;;;;6.98;79.12;99791.25;4347731;33;34005;-71
2022/11/08 00:45:56;;;;;;;0.85;0.85;;;;;;;6.66;83.84;99793.47;4348913;33;35000;-71
2022/11/08 00:48:24;;;;;;;0.95;0.95;;;;;;;6.87;82.13;99785.94;4348834;33;34652;-71
2022/11/08 00:50:52;;;;;;;1.20;1.20;;;;;;;7.12;82.60;99791.41;4348758;33;33764;-78
2022/11/08 00:53:20;;;;;;;2.67;1.85;;;;;;;7.28;80.38;99784.66;4335884;33;34699;-71
2022/11/08 00:56:00;;;;;;;0.77;0.77;;;;;;;7.61;78.08;99797.06;4348416;33;35984;-71
2022/11/08 00:58:28;;;;;;;0.60;0.60;;;;;;;7.53;76.58;99793.50;4349051;33;35325;-70
2022/11/08 01:00:57;;;;;;;0.50;0.50;;;;;;;7.12;77.83;99791.41;4348721;33;33944;-71
2022/11/08 01:03:25;;;;;;;0.73;0.73;;;;;;;7.55;75.50;99784.91;4335541;33;33624;-71
2022/11/08 01:05:54;;;;;;;0.50;0.50;;;;;;;7.62;74.70;99784.94;4348914;33;35977;-71
2022/11/08 01:08:23;;;;;;;0.50;0.50;;;;;;;7.45;75.59;99782.19;4348703;33;34544;-71
2022/11/08 01:10:51;;;;;;;1.77;1.35;;;;;;;7.25;76.13;99785.47;4335346;33;33725;-75
2022/11/08 01:13:20;;;;;;;2.20;2.10;;;;;;;7.15;76.51;99789.72;4348668;33;34331;-71
2022/11/08 01:15:49;;;;;;;0.70;0.70;;;;;;;7.40;75.83;99792.53;4335347;33;34441;-71
2022/11/08 01:18:17;;;;;;;1.15;1.15;;;;;;;7.70;72.78;99783.31;4347454;33;34497;-72
2022/11/08 01:20:47;;;;;;;3.00;2.70;;;;;;;6.98;75.89;99781.75;4348828;33;33836;-78
2022/11/08 01:23:18;;;;;;;1.62;1.52;;;;;;;7.46;74.32;99778.78;4348837;33;34065;-77
2022/11/08 01:25:47;;;;;;;4.18;2.50;;;;;;;7.45;73.89;99777.91;4335503;33;34178;-78
2022/11/08 01:28:16;;;;;;;0.70;0.70;;;;;;;7.30;75.05;99777.75;4348788;33;35224;-71
2022/11/08 01:30:45;;;;;;;1.23;1.12;;;;;;;7.17;74.72;99777.63;4348590;33;33708;-77
2022/11/08 01:33:13;;;;;;;0.93;0.93;;;;;;;6.76;75.57;99780.66;4335564;33;33988;-77
2022/11/08 01:35:44;;;;;;;0.90;0.90;;;;;;;6.80;76.28;99776.38;4348523;33;35016;-77
2022/11/08 01:38:12;;;;;;;2.45;2.35;;;;;;;7.05;75.92;99779.25;4347374;33;34774;-77
2022/11/08 01:40:45;;;;;;;0.62;0.62;;;;;;;7.09;77.14;99781.00;4335268;33;33726;-71
2022/11/08 01:43:28;;;;;;;0.70;0.70;;;;;;;7.23;75.40;99776.81;4335363;33;33915;-78
2022/11/08 01:46:17;;;;;;;1.12;1.12;;;;;;;7.22;75.33;99775.09;4348491;33;35025;-71
2022/11/08 01:48:50;;;;;;;0.90;0.90;;;;;;;6.99;76.65;99775.72;4348462;33;34548;-77
2022/11/08 01:51:21;;;;;;;3.03;1.40;;;;;;;6.88;76.73;99781.63;4348352;33;33815;-77
2022/11/08 01:53:50;;;;;;;1.15;1.15;;;;;;;6.94;75.92;99769.62;4347904;33;33977;-77
2022/11/08 01:56:18;;;;;;;1.02;1.02;;;;;;;6.76;77.29;99772.87;4348463;33;35142;-78
2022/11/08 01:58:47;;;;;;;1.58;1.48;;;;;;;6.80;76.12;99769.47;4347098;33;34028;-77
2022/11/08 02:01:15;;;;;;;3.58;3.37;;;;;;;6.70;75.98;99774.53;4348376;33;34453;-77
2022/11/08 02:03:44;;;;;;;2.03;1.02;;;;;;;6.84;75.04;99767.78;4348305;33;34591;-77
2022/11/08 02:06:12;;;;;;;0.85;0.85;;;;;;;6.68;77.11;99758.97;4348208;33;35264;-77
2022/11/08 02:08:41;;;;;;;1.98;1.87;;;;;;;6.74;77.67;99760.75;4347128;33;34538;-75
2022/11/08 02:11:12;;;;;;;0.80;0.80;;;;;;;6.81;76.52;99760.88;4348130;33;33744;-71
2022/11/08 02:13:40;;;;;;;0.85;0.82;;;;;;;6.70;76.54;99753.81;4335338;33;33866;-70
2022/11/08 02:16:13;;;;;;;1.33;1.30;;;;;;;6.88;74.97;99754.03;4348111;33;35058;-78
2022/11/08 02:18:45;;;;;;;1.08;1.08;;;;;;;6.66;75.71;99754.66;4334934;33;34573;-76
2022/11/08 02:21:19;;;;;;;0.70;0.70;;;;;;;6.65;75.83;99756.34;4335004;33;34474;-78
2022/11/08 02:23:52;;;;;;;1.00;0.93;;;;;;;6.67;75.25;99751.19;4348015;33;33996;-78
2022/11/08 02:26:28;;;;;;;1.17;1.17;;;;;;;6.95;74.21;99761.03;4334731;33;35133;-71
2022/11/08 02:28:57;;;;;;;1.80;1.70;;;;;;;6.53;76.21;99762.25;4334777;33;35268;-71
2022/11/08 02:31:25;;;;;;;1.50;1.40;;;;;;;6.78;74.71;99755.66;4347885;33;33657;-71
2022/11/08 02:33:53;;;;;;;1.58;1.23;;;;;;;6.26;75.45;99763.66;4347966;33;33968;-78
2022/11/08 02:36:23;;;;;;;2.05;1.95;;;;;;;6.49;76.01;99764.78;4347725;33;35051;-76
2022/11/08 02:38:53;;;;;;;1.37;1.33;;;;;;;5.94;78.51;99759.69;4334677;33;34634;-75
2022/11/08 02:41:22;;;;;;;0.90;0.90;;;;;;;6.57;75.66;99758.84;4334696;33;33962;-77
2022/11/08 02:43:50;;;;;;;0.82;0.82;;;;;;;6.10;76.32;99764.25;4347714;33;33795;-77
2022/11/08 02:46:17;;;;;;;3.17;1.40;;;;;;;6.78;73.46;99767.72;4347734;33;35993;-77
2022/11/08 02:48:46;;;;;;;0.90;0.90;;;;;;;6.86;72.44;99766.09;4347633;33;34472;-77
2022/11/08 02:51:14;;;;;;;2.15;2.05;;;;;;;6.79;71.89;99770.34;4346535;33;33719;-78
2022/11/08 02:53:42;;;;;;;0.60;0.60;;;;;;;6.03;74.68;99765.03;4346489;33;33870;-76
2022/11/08 02:56:10;;;;;;;0.80;0.80;;;;;;;6.33;74.73;99771.47;4347331;33;35968;-76
2022/11/08 02:58:38;;;;;;;0.82;0.82;;;;;;;5.68;78.52;99765.31;4347581;33;35214;-77
2022/11/08 03:01:06;;;;;;;0.50;0.50;;;;;;;6.29;75.91;99767.13;4347508;33;33673;-77
2022/11/08 03:03:34;;;;;;;1.17;1.17;;;;;;;6.33;74.86;99764.56;4347453;33;33865;-74
2022/11/08 03:06:02;;;;;;;1.15;1.12;;;;;;;6.33;73.34;99759.41;4347711;33;35863;-77
2022/11/08 03:08:30;;;;;;;2.40;1.20;;;;;;;4.43;84.55;99767.34;4349611;33;34464;-74
2022/11/08 03:10:59;;;;;;;0.90;0.90;;;;;;;5.00;83.66;99768.47;4349444;33;34470;-77
2022/11/08 03:13:27;;;;;;;1.00;1.00;;;;;;;4.91;83.56;99774.34;4349460;33;33908;-78
2022/11/08 03:15:55;;;;;;;0.93;0.93;;;;;;;5.68;81.03;99775.66;4349468;33;35030;-77
2022/11/08 03:18:23;;;;;;;2.58;1.87;;;;;;;6.42;75.52;99771.59;4349437;33;35243;-77
2022/11/08 03:20:51;;;;;;;0.60;0.60;;;;;;;6.10;76.79;99772.03;4349650;33;34502;-74
2022/11/08 03:23:19;;;;;;;0.70;0.70;;;;;;;6.59;74.50;99777.00;4349320;33;34657;-76
2022/11/08 03:25:47;;;;;;;1.00;0.90;;;;;;;6.67;73.08;99771.91;4349422;33;35146;-74
2022/11/08 03:28:15;;;;;;;1.02;1.02;;;;;;;6.45;73.89;99771.63;4349414;33;35405;-77
2022/11/08 03:30:51;;;;;;;0.75;0.75;;;;;;;6.57;73.91;99758.84;4349537;33;33541;-77
2022/11/08 03:33:19;;;;;;;0.60;0.60;;;;;;;6.57;73.33;99769.19;4349210;33;34609;-76
2022/11/08 03:35:48;;;;;;;1.17;1.17;;;;;;;6.50;73.00;99777.75;4349318;33;35827;-77
2022/11/08 03:38:17;;;;;;;1.20;1.08;;;;;;;6.41;73.45;99777.63;4336148;33;34492;-77
2022/11/08 03:40:45;;;;;;;1.00;1.00;;;;;;;6.08;74.73;99776.31;4349276;33;33617;-71
2022/11/08 03:43:13;;;;;;;1.33;1.23;;;;;;;5.42;77.50;99772.66;4349290;33;34007;-77
2022/11/08 03:45:42;;;;;;;0.50;0.50;;;;;;;5.97;76.32;99775.28;4349071;33;35053;-77
2022/11/08 03:48:10;;;;;;;0.60;0.60;;;;;;;5.76;76.73;99776.66;4349231;33;34543;-77
2022/11/08 03:50:38;;;;;;;3.30;2.08;;;;;;;6.01;76.98;99774.47;4349113;33;33577;-70
2022/11/08 03:53:06;;;;;;;0.50;0.50;;;;;;;6.51;73.64;99779.50;4348349;33;33812;-77
2022/11/08 03:55:34;;;;;;;0.60;0.60;;;;;;;6.38;74.39;99782.75;4348882;33;35855;-77
2022/11/08 03:58:02;;;;;;;1.45;1.02;;;;;;;6.36;75.35;99779.28;4349206;33;34491;-77
2022/11/08 04:00:30;;;;;;;0.60;0.60;;;;;;;6.20;76.49;99778.22;4349300;33;34418;-77
2022/11/08 04:03:01;;;;;;;1.10;1.00;;;;;;;5.81;78.17;99774.16;4349099;33;33905;-77
2022/11/08 04:05:31;;;;;;;1.45;1.45;;;;;;;6.35;75.36;99783.56;4349211;33;35257;-72
2022/11/08 04:08:00;;;;;;;0.60;0.60;;;;;;;6.34;74.56;99770.66;4347959;33;34661;-77
2022/11/08 04:10:28;;;;;;;2.25;2.15;;;;;;;6.00;74.95;99776.22;4349134;33;33897;-77
2022/11/08 04:15:46;;;;;;;3.28;1.42;;;;;;;5.98;77.88;99771.84;4337870;33;35731;-78
2022/11/08 04:21:20;;;;;;;;;;;;;;;4.73;89.56;99767.97;4349383;33;33608;-78
2022/11/08 04:23:50;;;;;;;0.83;0.80;;;;;;;5.11;90.60;99774.69;4349164;33;34246;-78
2022/11/08 04:26:20;;;;;;;1.05;0.98;;;;;;;5.55;86.39;99768.56;4335682;33;34945;-78
2022/11/08 04:28:48;;;;;;;1.08;1.08;;;;;;;6.29;82.03;99772.28;4348974;33;34474;-77
2022/11/08 04:31:18;;;;;;;0.85;0.85;;;;;;;5.97;81.92;99762.38;4348922;33;33662;-77
2022/11/08 04:33:46;;;;;;;0.55;0.55;;;;;;;6.44;78.70;99767.31;4347814;33;33235;-78
2022/11/08 04:36:15;;;;;;;1.70;1.60;;;;;;;6.39;78.51;99758.63;4347778;33;35147;-71
2022/11/08 04:38:47;;;;;;;1.12;1.10;;;;;;;6.32;78.05;99767.13;4348782;33;34121;-78
2022/11/08 04:41:19;;;;;;;0.80;0.80;;;;;;;6.47;78.60;99757.00;4335766;33;33603;-78
2022/11/08 04:43:49;;;;;;;1.00;0.98;;;;;;;6.59;78.23;99756.28;4347705;33;33897;-70
2022/11/08 04:46:19;;;;;;;1.08;1.08;;;;;;;6.57;79.20;99752.81;4335578;33;35932;-77
2022/11/08 04:48:50;;;;;;;0.65;0.65;;;;;;;6.80;77.90;99753.94;4335872;33;33766;-78
2022/11/08 04:51:30;;;;;;;0.60;0.60;;;;;;;6.43;78.53;99760.41;4348991;33;34553;-77
2022/11/08 04:53:59;;;;;;;0.75;0.75;;;;;;;6.31;79.65;99761.09;4335592;33;34585;-78
2022/11/08 04:56:29;;;;;;;0.60;0.60;;;;;;;6.61;79.61;99755.44;4348552;33;35044;-77
2022/11/08 04:58:58;;;;;;;1.40;1.30;;;;;;;6.48;79.87;99752.69;4323054;33;35393;-77
2022/11/08 05:01:28;;;;;;;0.80;0.80;;;;;;;6.91;78.62;99754.06;4333998;33;33657;-73
2022/11/08 05:03:57;;;;;;;1.67;1.58;;;;;;;6.50;80.65;99751.00;4333988;33;33850;-78
2022/11/08 05:06:27;;;;;;;2.53;2.33;;;;;;;6.54;80.91;99752.78;4334030;33;35119;-77
2022/11/08 05:08:56;;;;;;;2.47;2.30;;;;;;;6.67;80.66;99748.59;4333984;33;33763;-70
2022/11/08 05:11:27;;;;;;;1.70;1.60;;;;;;;6.48;81.61;99753.56;4344825;33;33660;-78
2022/11/08 05:13:55;;;;;;;1.45;1.35;;;;;;;6.40;82.41;99756.03;4335364;33;34940;-77
2022/11/08 05:16:28;;;;;;;4.65;3.28;;;;;;;6.40;82.82;99760.34;4348635;33;35781;-77
2022/11/08 05:18:57;;;;;;;2.03;1.92;;;;;;;6.45;82.74;99762.16;4335473;33;34624;-78
2022/11/08 05:24:12;;;;;;;;;;;;;;;6.61;82.49;99767.53;4349079;33;34642;-78
2022/11/08 05:26:42;;;;;;;2.60;2.15;;;;;;;6.14;84.78;99768.66;4348753;33;36252;-77
2022/11/08 05:29:10;;;;;;;0.77;0.77;;;;;;;5.59;86.40;99767.78;4347637;33;34510;-70
2022/11/08 05:31:39;;;;;;;0.88;0.88;;;;;;;5.45;88.39;99771.00;4348647;33;33566;-70
2022/11/08 05:34:07;;;;;;;0.70;0.70;;;;;;;5.33;88.04;99770.81;4335531;33;34671;-70
2022/11/08 05:36:35;;;;;;;0.75;0.75;;;;;;;5.40;88.27;99779.50;4348469;33;35954;-70
2022/11/08 05:39:04;;;;;;;4.12;3.22;;;;;;;6.21;85.30;99779.94;4335227;33;33904;-73
2022/11/08 05:41:31;;;;;;;0.90;0.90;;;;;;;6.37;83.27;99781.91;4348490;33;33835;-76
2022/11/08 05:43:59;;;;;;;0.88;0.88;;;;;;;6.36;82.92;99792.22;4323105;33;32358;-77
2022/11/08 05:46:30;;;;;;;0.95;0.95;;;;;;;5.82;85.26;99787.09;4348453;33;34964;-76
2022/11/08 05:48:58;;;;;;;0.77;0.77;;;;;;;5.55;86.93;99784.94;4348490;33;34549;-76
2022/11/08 05:51:25;;;;;;;0.98;0.98;;;;;;;5.74;87.24;99788.69;4348319;33;34521;-76
2022/11/08 05:53:54;;;;;;;0.85;0.85;;;;;;;5.42;88.22;99786.44;4348338;33;34755;-76
2022/11/08 05:56:22;;;;;;;0.50;0.50;;;;;;;5.34;89.91;99790.59;4348250;33;35068;-76
2022/11/08 05:58:50;;;;;;;0.50;0.50;;;;;;;5.37;90.21;99782.91;4348370;33;34551;-76
2022/11/08 06:01:19;;;;;;;1.45;1.23;;;;;;;5.08;90.28;99785.84;4348070;33;33738;-77
2022/11/08 06:03:47;;;;;;;4.05;0.98;;;;;;;5.09;90.38;99785.00;4348307;33;34808;-75
2022/11/08 06:06:18;;;;;;;1.08;1.08;;;;;;;4.86;91.43;99779.41;4348235;33;35145;-75
2022/11/08 06:08:47;;;;;;;2.20;1.40;;;;;;;5.04;91.89;99778.00;4334873;33;34541;-71
2022/11/08 06:11:21;;;;;;;0.90;0.90;;;;;;;5.51;90.19;99785.72;4348156;33;34553;-81
2022/11/08 06:13:50;;;;;;;0.52;0.52;;;;;;;5.82;88.41;99792.28;4334597;33;34335;-78
2022/11/08 06:16:19;;;;;;;0.40;0.40;;;;;;;6.34;84.55;99791.34;4334987;33;35413;-78
2022/11/08 06:18:48;;;;;;;0.70;0.70;;;;;;;5.97;86.01;99791.66;4348089;33;34287;-77
2022/11/08 06:21:18;;;;;;;0.70;0.70;;;;;;;5.58;88.70;99791.88;4335073;33;34348;-78
2022/11/08 06:23:47;;;;;;;1.67;1.58;;;;;;;5.46;89.65;99795.97;4335071;33;34011;-78
2022/11/08 06:26:15;;;;;;;1.20;1.10;;;;;;;5.65;89.90;99801.47;4334787;33;35931;-78
2022/11/08 06:28:43;;;;;;;1.48;1.37;;;;;;;6.32;86.58;99806.81;4347980;33;35164;-78
2022/11/08 06:31:11;;;;;;;0.80;0.80;;;;;;;6.84;84.38;99804.03;4347972;33;34493;-76
2022/11/08 06:33:39;;;;;;;0.50;0.50;;;;;;;6.92;82.99;99807.59;4334553;33;33886;-76
2022/11/08 06:36:08;;;;;;;1.35;1.12;;;;;;;6.53;86.05;99803.66;4347878;33;35128;-72
2022/11/08 06:38:36;;;;;;;2.97;1.02;;;;;;;6.29;86.30;99803.31;4347874;33;34497;-77
2022/11/08 06:41:04;;;;;;;1.02;1.02;;;;;;;6.32;87.38;99803.34;4348986;33;33621;-74
2022/11/08 06:43:32;;;;;;;2.28;2.10;;;;;;;6.36;88.29;99805.16;4349815;33;33812;-78
2022/11/08 06:46:01;;;;;;;1.33;1.15;;;;;;;6.67;86.04;99802.94;4349625;33;35272;-71
2022/11/08 06:48:29;;;;;;;0.50;0.50;;;;;;;7.02;85.70;99806.84;4349670;33;35200;-76
2022/11/08 06:51:03;;;;;;;0.65;0.65;;;;;;;7.12;82.92;99807.78;4349707;33;34519;-73
2022/11/08 06:53:32;;;;;;;2.72;2.53;;;;;;;6.93;86.07;99811.88;4349645;33;34013;-73
2022/11/08 06:56:00;;;;;;;1.02;1.02;;;;;;;6.77;87.84;99815.16;4349376;33;35875;-76
2022/11/08 06:58:29;;;;;;;0.98;0.98;;;;;;;6.64;86.97;99814.16;4349621;33;34399;-71
2022/11/08 07:00:57;;;;;;;0.85;0.85;;;;;;;6.64;86.88;99817.59;4349488;33;34365;-76
2022/11/08 07:03:25;;;;;;;0.50;0.50;;;;;;;6.88;85.94;99816.16;4347783;33;33875;-73
2022/11/08 07:05:54;;;;;;;0.75;0.75;;;;;;;5.99;89.21;99820.13;4347322;33;35185;-76
2022/11/08 07:08:22;;;;;;;1.15;0.85;;;;;;;6.42;90.11;99820.75;4348105;33;35200;-77
2022/11/08 07:10:51;;;;;;;1.17;1.15;;;;;;;6.87;86.71;99818.75;4347928;33;34165;-73
2022/11/08 07:13:19;;;;;;;0.65;0.65;;;;;;;6.90;87.47;99819.66;4349364;33;34765;-77
2022/11/08 07:15:48;;;;;;;1.05;1.05;;;;;;;6.42;89.55;99820.75;4336020;33;33616;-77
2022/11/08 07:18:17;;;;;;;1.00;1.00;;;;;;;6.85;87.87;99826.50;4348325;33;34524;-75
2022/11/08 07:20:46;;;;;;;0.80;0.80;;;;;;;6.87;89.04;99823.91;4349668;33;35026;-79
2022/11/08 07:23:14;;;;;;;1.52;1.45;;;;;;;6.93;87.76;99824.84;4349354;33;34675;-77
2022/11/08 07:25:42;;;;;;;0.52;0.52;;;;;;;7.06;88.17;99820.69;4349725;33;35101;-71
2022/11/08 07:28:14;;;;;;;1.77;1.67;;;;;;;6.05;90.93;99822.78;4349101;33;35308;-77
2022/11/08 07:30:44;;;;;;;1.67;1.58;;;;;;;6.28;93.15;99824.84;4349478;33;34589;-75
2022/11/08 07:33:13;;;;;;;1.10;1.10;;;;;;;6.45;91.43;99820.78;4349456;33;34702;-77
2022/11/08 07:35:44;;;;;;;0.82;0.65;;;;;;;6.20;93.78;99824.75;4349354;33;35725;-71
2022/11/08 07:38:12;;;;;;;0.95;0.95;;;;;;;6.37;93.32;99832.72;4349421;33;34559;-77
2022/11/08 07:40:40;;;;;;;1.08;1.05;;;;;;;7.01;90.86;99825.81;4347337;33;34436;-79
2022/11/08 07:43:08;;;;;;;1.77;1.67;;;;;;;7.28;89.07;99826.09;4342941;33;33940;-71
2022/11/08 07:45:40;;;;;;;0.70;0.70;;;;;;;7.38;89.83;99836.56;4343441;33;35046;-79
2022/11/08 07:48:11;;;;;;;2.00;1.60;;;;;;;6.71;94.17;99830.63;4329776;33;35162;-72
2022/11/08 07:50:41;;;;;;;0.73;0.73;;;;;;;7.45;91.38;99832.31;4349347;33;33787;-76
2022/11/08 07:53:09;;;;;;;0.90;0.90;;;;;;;7.13;92.96;99837.12;4348777;33;33976;-79
2022/11/08 07:55:40;;;;;;;0.80;0.80;;;;;;;7.24;94.14;99835.56;4347736;32;34676;-72
2022/11/08 07:58:10;;;;;;;1.15;1.15;;;;;;;6.89;93.21;99835.16;4347846;33;35279;-71
2022/11/08 08:00:39;;;;;;;0.60;0.60;;;;;;;7.61;92.98;99830.75;4335357;33;33840;-71
2022/11/08 08:03:09;;;;;;;6.25;3.83;;;;;;;7.37;93.20;99833.97;4335474;33;33951;-71
2022/11/08 08:05:40;;;;;;;0.60;0.60;;;;;;;8.14;92.01;99832.87;4348546;33;34307;-72
2022/11/08 08:08:11;;;;;;;3.83;2.30;;;;;;;7.46;92.48;99826.25;4348714;33;34333;-71
2022/11/08 08:10:39;;;;;;;0.70;0.70;;;;;;;8.18;90.66;99831.19;4348977;33;33683;-76
2022/11/08 08:13:08;;;;;;;3.83;0.93;;;;;;;8.97;88.19;99831.66;4335745;33;33865;-71
2022/11/08 08:15:36;;;;;;;3.70;3.37;;;;;;;8.42;89.73;99832.19;4348962;33;35047;-71
2022/11/08 08:18:06;;;;;;;2.30;2.20;;;;;;;8.65;89.89;99840.16;4349013;33;34421;-72
2022/11/08 08:20:36;;;;;;;1.27;0.98;;;;;;;8.79;89.98;99837.59;4349078;33;34481;-77
2022/11/08 08:23:05;;;;;;;2.92;2.70;;;;;;;8.65;90.00;99832.38;4348937;33;34666;-75
2022/11/08 08:25:33;;;;;;;1.80;1.70;;;;;;;8.97;89.56;99832.50;4349036;33;35321;-72
2022/11/08 08:28:02;;;;;;;1.12;1.12;;;;;;;8.78;89.77;99833.28;4348934;33;35325;-75
2022/11/08 08:30:30;;;;;;;2.05;1.50;;;;;;;9.44;88.45;99825.69;4338890;33;33146;-72
2022/11/08 08:33:10;;;;;;;1.77;1.67;;;;;;;9.81;86.66;99829.22;4334170;33;34075;-72
2022/11/08 08:36:01;;;;;;;4.87;3.17;;;;;;;9.84;85.87;99828.31;4332534;33;35783;-71
2022/11/08 08:38:31;;;;;;;0.98;0.98;;;;;;;9.61;88.98;99833.50;4334160;33;34665;-72
2022/11/08 08:40:59;;;;;;;1.73;1.62;;;;;;;9.95;85.65;99833.53;4345173;33;33669;-72
2022/11/08 08:43:31;;;;;;;2.67;1.50;;;;;;;9.95;86.27;99836.97;4334098;33;34760;-72
2022/11/08 08:46:01;;;;;;;1.70;1.60;;;;;;;9.90;85.94;99838.75;4344914;33;35206;-72
2022/11/08 08:48:30;;;;;;;3.00;2.45;;;;;;;10.03;86.58;99840.47;4334119;33;34558;-72
2022/11/08 08:50:58;;;;;;;1.10;1.10;;;;;;;9.96;87.64;99843.06;4334126;33;33757;-71
2022/11/08 08:53:26;;;;;;;1.83;1.25;;;;;;;9.80;88.92;99850.88;4334106;33;34748;-71
2022/11/08 08:55:54;;;;;;;2.47;2.25;;;;;;;10.01;88.52;99839.59;4333802;33;36066;-71
2022/11/08 08:58:23;;;;;;;2.40;1.02;;;;;;;9.83;90.10;99845.69;4334086;33;34591;-76
2022/11/08 09:00:51;;;;;;;2.62;1.80;;;;;;;10.16;87.88;99841.31;4332943;33;33555;-72
2022/11/08 09:03:39;;;;;;;0.68;0.68;;;;;;;10.56;85.83;99845.62;4332939;33;33827;-72
2022/11/08 09:06:07;;;;;;;1.67;1.58;;;;;;;10.41;87.57;99842.19;4334062;33;35091;-72
2022/11/08 09:08:36;;;;;;;1.23;1.17;;;;;;;10.57;87.46;99847.34;4334028;33;34561;-72
2022/11/08 09:11:04;;;;;;;5.37;3.85;;;;;;;10.59;88.95;99850.84;4334076;33;33758;-73
2022/11/08 09:13:33;;;;;;;2.65;1.98;;;;;;;10.57;91.20;99849.94;4334009;33;33942;-72
2022/11/08 09:16:02;;;;;;;2.97;2.67;;;;;;;10.50;88.66;99848.22;4333759;33;35910;-72
2022/11/08 09:18:31;;;;;;;2.87;2.67;;;;;;;11.59;84.32;99852.97;4333962;33;34438;-72
2022/11/08 09:21:02;;;;;;;0.73;0.73;;;;;;;12.11;82.58;99852.59;4333775;33;33811;-72
2022/11/08 09:24:16;;;;;;;2.33;2.15;;;;;;;12.30;77.49;99861.13;4491007;32;221373;-76
2022/11/08 09:26:44;;;;;;;1.92;1.50;;;;;;;11.71;79.82;99862.44;4482139;32;33257;-74
2022/11/08 09:29:12;;;;;;;3.95;2.72;;;;;;;11.97;81.17;99864.91;4482095;32;33984;-76
2022/11/08 09:31:40;;;;;;;3.35;2.45;;;;;;;12.10;80.06;99857.84;4468140;32;35892;-74
2022/11/08 09:34:08;;;;;;;1.95;1.77;;;;;;;12.28;76.32;99864.63;4482074;32;34557;-73
2022/11/08 09:36:36;;;;;;;1.98;1.85;;;;;;;12.35;76.37;99862.81;4468089;32;33542;-73
2022/11/08 09:39:04;;;;;;;4.45;3.62;;;;;;;12.61;75.81;99858.22;4482149;32;34792;-74
2022/11/08 09:41:52;;;;;;;3.60;2.95;;;;;;;13.02;75.07;99853.38;4482041;32;35750;-75
2022/11/08 09:44:48;;;;;;;2.25;1.87;;;;;;;13.56;76.61;99855.31;4468192;32;34244;-76
2022/11/08 09:47:24;;;;;;;4.80;3.85;;;;;;;14.30;69.78;99854.13;4470483;32;33379;-73
2022/11/08 09:50:45;;;;;;;4.63;3.30;;;;;;;14.04;70.56;99845.81;4452851;32;34582;-77
2022/11/08 09:53:17;;;;;;;6.20;4.28;;;;;;;13.40;71.37;99850.28;4456337;32;34931;-77
2022/11/08 09:56:03;;;;;;;5.97;3.22;;;;;;;13.90;70.77;99850.41;4452140;32;33691;-73
2022/11/08 09:58:39;;;;;;;7.68;4.85;;;;;;;14.14;68.85;99857.00;4455918;32;33452;-75
2022/11/08 10:01:10;;;;;;;2.35;2.22;;;;;;;14.57;68.12;99857.97;4450505;32;33226;-75
2022/11/08 10:03:42;;;;;;;2.65;2.45;;;;;;;14.52;68.12;99855.44;4466760;32;35006;-74
2022/11/08 10:06:43;;;;;;;1.73;1.62;;;;;;;15.00;67.80;99853.69;4482002;32;35014;-77
2022/11/08 10:09:31;;;;;;;2.80;2.55;;;;;;;15.54;64.65;99843.75;4481885;32;33548;-76
2022/11/08 10:11:59;;;;;;;;;;;;;;;14.72;69.62;99851.63;4482400;32;33827;-74
2022/11/08 10:14:37;;;;;;;3.40;2.00;;;;;;;15.75;64.78;99845.94;4482003;32;35212;-74
2022/11/08 10:17:40;;;;;;;2.12;1.20;;;;;;;16.65;61.92;99840.13;4481704;32;34486;-77
2022/11/08 10:20:14;;;;;;;3.40;2.33;;;;;;;17.33;60.34;99840.81;4481793;32;34218;-75
2022/11/08 10:22:42;;;;;;;6.15;3.25;;;;;;;18.52;54.03;99840.47;4481679;32;33848;-78
2022/11/08 10:25:44;;;;;;;4.15;3.30;;;;;;;18.49;56.00;99832.66;4481591;32;34806;-78
2022/11/08 10:28:17;;;;;;;3.00;2.70;;;;;;;18.84;52.61;99833.22;4467722;32;34398;-76
2022/11/08 10:30:48;;;;;;;4.82;4.00;;;;;;;18.69;52.71;99827.53;4454681;32;32811;-77
2022/11/08 10:33:24;;;;;;;6.03;5.20;;;;;;;18.51;56.05;99825.56;4454577;32;32639;-78
2022/11/08 10:35:58;;;;;;;8.77;4.32;;;;;;;19.62;51.36;99813.47;4470904;32;34917;-77
2022/11/08 10:38:36;;;;;;;4.32;2.20;;;;;;;18.85;53.56;99812.03;4471409;32;34222;-77
2022/11/08 10:41:20;;;;;;;4.80;4.32;;;;;;;19.37;50.71;99811.81;4444629;32;33362;-75
2022/11/08 10:44:08;;;;;;;6.03;3.17;;;;;;;19.42;52.29;99820.41;4442696;32;33948;-75
2022/11/08 10:46:56;;;;;;;3.22;2.80;;;;;;;19.31;50.42;99812.91;4462180;32;35790;-74
2022/11/08 10:49:35;;;;;;;4.07;2.87;;;;;;;19.02;51.57;99808.75;4455426;32;33246;-73
2022/11/08 10:52:27;;;;;;;2.20;2.03;;;;;;;18.47;55.42;99802.84;4441831;32;33303;-73
2022/11/08 10:54:57;;;;;;;4.07;2.78;;;;;;;18.29;51.66;99805.22;4441695;32;34801;-77
2022/11/08 10:57:31;;;;;;;1.98;1.87;;;;;;;19.19;48.50;99807.25;4441610;32;34910;-74
2022/11/08 11:00:19;;;;;;;2.22;2.03;;;;;;;19.07;48.39;99798.88;4455425;32;34351;-75
2022/11/08 11:02:52;;;;;;;2.62;2.42;;;;;;;18.92;49.09;99800.34;4455337;32;33465;-78
2022/11/08 11:05:37;;;;;;;4.45;3.55;;;;;;;18.80;51.02;99800.75;4441607;32;33860;-79
2022/11/08 11:08:08;;;;;;;3.50;3.20;;;;;;;18.86;49.99;99794.41;4455416;32;34925;-76
2022/11/08 11:10:47;;;;;;;3.75;2.37;;;;;;;18.65;50.85;99796.91;4455428;32;34323;-75
2022/11/08 11:13:27;;;;;;;2.97;2.72;;;;;;;18.48;51.40;99804.59;4441696;32;33474;-77
2022/11/08 11:15:56;;;;;;;7.10;4.60;;;;;;;17.83;53.03;99804.13;4455242;32;34714;-77
2022/11/08 11:18:36;;;;;;;3.72;3.42;;;;;;;18.47;51.93;99794.94;4455336;32;35036;-78
2022/11/08 11:21:09;;;;;;;2.10;1.92;;;;;;;18.54;50.44;99804.34;4432834;32;33575;-77
2022/11/08 11:23:52;;;;;;;2.97;2.55;;;;;;;18.32;51.31;99793.72;4454917;32;33430;-77
2022/11/08 11:26:31;;;;;;;3.62;3.33;;;;;;;17.79;52.22;99799.88;4441391;32;33950;-78
2022/11/08 11:29:02;;;;;;;2.90;2.70;;;;;;;16.60;55.64;99794.69;4442154;32;35821;-74
2022/11/08 11:31:41;;;;;;;3.00;2.70;;;;;;;15.23;59.83;99795.47;4454773;32;34500;-75
2022/11/08 11:34:16;;;;;;;9.07;4.07;;;;;;;15.14;59.44;99791.28;4448510;32;34138;-75
2022/11/08 11:37:00;;;;;;;6.25;4.00;;;;;;;14.69;61.66;99796.66;4462884;32;33996;-74
2022/11/08 11:39:32;;;;;;;3.08;2.78;;;;;;;14.64;61.78;99791.47;4458416;32;36121;-73
2022/11/08 11:42:04;;;;;;;3.17;2.33;;;;;;;13.76;65.72;99794.81;4455782;32;34365;-75
2022/11/08 11:45:08;;;;;;;2.65;2.45;;;;;;;13.87;65.74;99787.66;4458002;32;34120;-77
2022/11/08 11:47:46;;;;;;;2.53;2.33;;;;;;;13.12;68.56;99796.63;4440768;32;34030;-74
2022/11/08 11:50:33;;;;;;;1.33;1.27;;;;;;;13.12;69.91;99791.38;4443412;32;35029;-76
2022/11/08 11:53:05;;;;;;;;;;;;;;;13.43;68.91;99789.25;4435074;32;34499;-75
2022/11/08 11:55:43;;;;;;;2.10;1.90;;;;;;;13.10;71.24;99783.56;4454651;32;34240;-74
2022/11/08 11:58:17;;;;;;;2.25;1.70;;;;;;;13.05;70.57;99791.47;4468808;32;33927;-73
2022/11/08 12:00:59;;;;;;;3.50;3.05;;;;;;;13.07;72.76;99779.22;4469749;32;34929;-76
2022/11/08 12:03:36;;;;;;;3.58;3.33;;;;;;;13.34;72.93;99777.16;4456595;32;34253;-73
2022/11/08 12:06:23;;;;;;;5.03;4.55;;;;;;;13.31;70.81;99777.19;4470695;32;33459;-73
2022/11/08 12:09:10;;;;;;;;;;;;;;;13.60;69.67;99775.88;4444045;32;33122;-73
2022/11/08 12:11:58;;;;;;;2.22;2.10;;;;;;;13.29;71.31;99773.72;4456661;32;34529;-76
2022/11/08 12:14:37;;;;;;;5.07;2.87;;;;;;;12.83;74.75;99774.31;4456719;32;34258;-74
2022/11/08 12:17:40;;;;;;;1.90;1.77;;;;;;;13.24;73.50;99770.28;4470542;32;34237;-76
2022/11/08 12:20:20;;;;;;;2.40;2.25;;;;;;;13.26;73.35;99763.28;4441739;32;34028;-73
2022/11/08 12:23:27;;;;;;;2.03;1.92;;;;;;;13.70;72.26;99763.50;4470208;32;36001;-74
2022/11/08 12:26:15;;;;;;;3.72;3.20;;;;;;;13.70;72.30;99759.13;4470281;32;34477;-73